Terminal Aerodrome Forecast
Issued by NWS Springfield, MO

Home | Current Version | Previous Version | Text Only | Print | Product List | Glossary On
Versions: 1 2 3 4 5 6 7 8 9 10 11 12 13 14 15 16 17
000
FTUS43 KSGF 232300 CCA
TAFSGF
TAF COR
KSGF 232354Z 2400/2424 15012KT P6SM BKN035 OVC100
     FM240600 14015G25KT P6SM BKN030 OVC090 WS015/15040KT
     FM241000 14015G25KT 6SM -TSRA BKN030CB OVC060 WS015/16040KT
      TEMPO 2412/2416 4SM -TSRA OVC025CB
     FM241700 16014G24KT P6SM SCT030 BKN070=

USA.gov is the U.S. government's official web portal to all federal, state and local government web resources and services.